Time;durP1;ratioP1;P1;durP2;ratioP2;P2;SDS_P1;SDS_P2;PMS_P1;PMS_P2;Temp;Humidity;BMP_temperature;BMP_pressure;BME280_temperature;BME280_humidity;BME280_pressure;Samples;Min_cycle;Max_cycle;Signal;HPM_P1;HPM_P2
2022/01/16 00:00:09;;;;;;;45.10;29.07;;;-8.20;99.90;;;;;;5115801;28;20566;-83
2022/01/16 00:05:05;;;;;;;44.00;30.03;;;-8.40;99.90;;;;;;5116829;28;20406;-82
2022/01/16 00:07:31;;;;;;;44.97;31.00;;;-8.40;99.90;;;;;;5116790;28;20395;-83
2022/01/16 00:09:56;;;;;;;47.33;30.60;;;-8.70;99.90;;;;;;5116664;28;20474;-82
2022/01/16 00:12:23;;;;;;;40.57;29.20;;;-8.30;99.90;;;;;;5116186;28;20170;-82
2022/01/16 00:14:50;;;;;;;50.87;31.90;;;-8.10;99.90;;;;;;5116687;28;20174;-83
2022/01/16 00:17:19;;;;;;;47.97;31.77;;;-8.60;99.90;;;;;;5116447;28;20399;-83
2022/01/16 00:19:44;;;;;;;48.30;31.47;;;-6.80;99.90;;;;;;5114986;28;20929;-82
2022/01/16 00:22:14;;;;;;;42.93;29.80;;;-8.00;99.90;;;;;;5113815;28;20402;-83
2022/01/16 00:24:40;;;;;;;49.47;32.67;;;-7.40;99.90;;;;;;5116716;28;20173;-82
2022/01/16 00:27:07;;;;;;;49.50;30.67;;;-6.40;99.90;;;;;;5115520;28;20415;-83
2022/01/16 00:29:33;;;;;;;52.73;32.13;;;-7.30;99.90;;;;;;5113793;28;20177;-83
2022/01/16 00:31:59;;;;;;;51.93;33.53;;;-7.20;99.90;;;;;;5116183;28;20398;-83
2022/01/16 00:34:24;;;;;;;43.57;31.07;;;-7.50;99.90;;;;;;5115265;28;20413;-84
2022/01/16 00:36:50;;;;;;;43.23;32.17;;;-7.20;99.90;;;;;;5115034;28;20201;-82
2022/01/16 00:39:16;;;;;;;50.27;30.77;;;-8.50;99.90;;;;;;5115845;28;20581;-81
2022/01/16 00:41:43;;;;;;;50.47;31.50;;;-6.80;99.90;;;;;;5115939;28;20173;-82
2022/01/16 00:44:09;;;;;;;49.57;31.33;;;-7.80;99.90;;;;;;5116348;28;20537;-81
2022/01/16 00:46:35;;;;;;;49.70;32.17;;;-5.80;99.90;;;;;;5114616;28;20398;-81
2022/01/16 00:49:02;;;;;;;44.63;29.30;;;-8.00;99.90;;;;;;5115514;28;20215;-80
2022/01/16 00:51:28;;;;;;;42.43;29.97;;;-7.90;99.90;;;;;;5115436;28;20405;-81
2022/01/16 00:53:54;;;;;;;46.23;28.47;;;-7.70;99.90;;;;;;5115293;28;20493;-80
2022/01/16 00:56:21;;;;;;;46.33;29.63;;;-7.30;99.90;;;;;;5115456;28;20445;-81
2022/01/16 00:58:47;;;;;;;45.20;29.23;;;-5.50;99.90;;;;;;5114965;28;20219;-79
2022/01/16 01:01:14;;;;;;;46.80;29.83;;;-7.60;99.90;;;;;;5116011;28;20434;-80
2022/01/16 01:03:41;;;;;;;46.33;27.53;;;-7.40;99.90;;;;;;5114784;28;20406;-80
2022/01/16 01:06:07;;;;;;;47.97;29.50;;;-6.90;99.90;;;;;;5115541;28;20458;-80
2022/01/16 01:08:33;;;;;;;47.30;30.57;;;-8.10;99.90;;;;;;5116127;28;20816;-81
2022/01/16 01:11:02;;;;;;;42.67;28.90;;;-6.60;99.90;;;;;;5116009;28;20182;-80
2022/01/16 01:16:01;;;;;;;41.50;28.90;;;-7.40;99.90;;;;;;5116156;28;20406;-80
2022/01/16 01:18:27;;;;;;;46.47;32.07;;;-7.20;99.90;;;;;;5116075;28;20162;-80
2022/01/16 01:20:54;;;;;;;44.83;29.83;;;-7.70;99.90;;;;;;5114875;28;20446;-81
2022/01/16 01:23:20;;;;;;;51.83;31.83;;;-8.20;99.90;;;;;;5114915;28;20406;-81
2022/01/16 01:25:46;;;;;;;42.60;28.70;;;-6.50;99.90;;;;;;5115844;28;20755;-80
2022/01/16 01:28:12;;;;;;;43.57;30.90;;;-7.70;99.90;;;;;;5114069;28;20402;-81
2022/01/16 01:30:40;;;;;;;46.53;29.53;;;-8.20;99.90;;;;;;5114488;28;20170;-80
2022/01/16 01:33:06;;;;;;;46.43;30.57;;;-8.10;99.90;;;;;;5115530;28;20399;-81
2022/01/16 01:35:38;;;;;;;46.70;31.80;;;-7.90;99.90;;;;;;5115781;28;20399;-81
2022/01/16 01:38:05;;;;;;;43.73;28.97;;;-6.70;99.90;;;;;;5114635;28;20516;-80
2022/01/16 01:40:30;;;;;;;51.00;30.40;;;-7.50;99.90;;;;;;5114914;28;20525;-80
2022/01/16 01:51:44;;;;;;;49.93;28.07;;;-8.00;99.90;;;;;;5115087;28;20455;-80
2022/01/16 01:54:11;;;;;;;47.10;29.70;;;-7.80;99.90;;;;;;5114731;28;20717;-81
2022/01/16 01:56:39;;;;;;;47.67;31.43;;;-7.90;99.90;;;;;;5114464;28;20425;-80
2022/01/16 01:59:06;;;;;;;42.87;29.67;;;-7.80;99.90;;;;;;5116363;28;20455;-81
2022/01/16 02:01:33;;;;;;;47.23;29.23;;;-8.00;99.90;;;;;;5117464;28;20449;-81
2022/01/16 02:03:59;;;;;;;39.77;27.57;;;-7.70;99.90;;;;;;5119382;28;20441;-81
2022/01/16 02:06:31;;;;;;;47.93;28.67;;;-7.70;99.90;;;;;;5119238;28;20394;-81
2022/01/16 02:09:04;;;;;;;42.10;28.23;;;-7.60;99.90;;;;;;5118753;28;20410;-81
2022/01/16 02:11:31;;;;;;;41.27;27.53;;;-7.70;99.90;;;;;;5118896;28;20855;-80
2022/01/16 02:35:40;;;;;;;43.03;28.93;;;-7.40;99.90;;;;;;5118382;28;21232;-81
2022/01/16 02:38:09;;;;;;;42.60;28.00;;;-7.60;99.90;;;;;;5118270;28;20429;-81
2022/01/16 02:40:37;;;;;;;44.73;28.50;;;-8.30;99.90;;;;;;5118355;28;20477;-81
2022/01/16 02:43:04;;;;;;;47.43;29.63;;;-8.00;99.90;;;;;;5117153;28;20433;-82
2022/01/16 02:45:32;;;;;;;46.20;29.07;;;-7.40;99.90;;;;;;5118084;28;20418;-81
2022/01/16 02:48:07;;;;;;;45.67;29.20;;;-7.40;99.90;;;;;;5118601;28;20399;-79
2022/01/16 02:50:37;;;;;;;49.77;29.57;;;-7.50;99.90;;;;;;5118515;28;20479;-80
2022/01/16 02:53:09;;;;;;;47.73;29.63;;;-7.70;99.90;;;;;;5117652;28;20970;-80
2022/01/16 02:55:39;;;;;;;47.60;29.83;;;-8.10;99.90;;;;;;5119288;28;20843;-82
2022/01/16 02:58:05;;;;;;;46.20;29.33;;;-8.20;99.90;;;;;;5117979;28;20471;-81
2022/01/16 03:00:31;;;;;;;53.33;30.27;;;-8.00;99.90;;;;;;5117340;28;20905;-79
2022/01/16 03:02:57;;;;;;;48.73;31.13;;;-8.00;99.90;;;;;;5117477;28;20166;-80
2022/01/16 03:05:23;;;;;;;44.67;30.87;;;-7.80;99.90;;;;;;5118208;28;20576;-81
2022/01/16 03:07:49;;;;;;;45.33;30.93;;;-7.90;99.90;;;;;;5116810;28;20188;-80
2022/01/16 03:13:04;;;;;;;46.73;29.83;;;-7.20;99.90;;;;;;5117140;28;20455;-81
2022/01/16 03:15:30;;;;;;;49.97;29.33;;;-7.40;99.90;;;;;;5116948;28;20762;-82
2022/01/16 03:23:18;;;;;;;47.60;29.27;;;-8.10;99.90;;;;;;5117198;28;20756;-83
2022/01/16 03:25:44;;;;;;;51.13;31.87;;;-5.30;99.90;;;;;;5116733;28;20395;-83
2022/01/16 03:28:10;;;;;;;52.00;34.80;;;-8.10;99.90;;;;;;5117708;28;20399;-82
2022/01/16 03:30:36;;;;;;;52.20;32.83;;;-8.30;99.90;;;;;;5116890;28;20497;-82
2022/01/16 03:33:02;;;;;;;45.60;30.37;;;-8.40;99.90;;;;;;5117753;28;20857;-83
2022/01/16 03:35:28;;;;;;;52.20;32.67;;;-7.70;99.90;;;;;;5117535;28;20166;-83
2022/01/16 03:37:53;;;;;;;48.67;32.23;;;-6.60;99.90;;;;;;5116467;28;20847;-83
2022/01/16 03:40:21;;;;;;;52.07;33.37;;;-6.30;99.90;;;;;;5117134;28;20609;-82
2022/01/16 03:42:48;;;;;;;51.90;35.67;;;-7.80;99.90;;;;;;5117452;28;20159;-83
2022/01/16 03:45:14;;;;;;;46.13;29.53;;;-7.60;99.90;;;;;;5117258;28;20450;-76
2022/01/16 03:47:40;;;;;;;52.73;34.40;;;-7.80;99.90;;;;;;5116877;28;20846;-83
2022/01/16 03:50:06;;;;;;;51.57;32.10;;;-8.00;99.90;;;;;;5116917;28;20606;-83
2022/01/16 03:52:33;;;;;;;50.13;30.83;;;-7.90;99.90;;;;;;5116407;28;20223;-83
2022/01/16 03:54:59;;;;;;;47.50;28.87;;;-7.70;99.90;;;;;;5116981;28;20497;-83
2022/01/16 03:57:25;;;;;;;54.80;33.40;;;-8.30;99.90;;;;;;5116563;28;20489;-79
2022/01/16 03:59:50;;;;;;;51.40;31.93;;;-7.70;99.90;;;;;;5116984;28;20616;-83
2022/01/16 04:02:16;;;;;;;58.90;33.13;;;-7.50;99.90;;;;;;5115948;28;20409;-83
2022/01/16 04:04:42;;;;;;;56.80;35.53;;;-7.20;99.90;;;;;;5116598;28;20245;-83
2022/01/16 04:07:11;;;;;;;65.30;36.10;;;-7.20;99.90;;;;;;5116699;28;20461;-83
2022/01/16 04:09:37;;;;;;;51.50;32.77;;;-7.90;99.90;;;;;;5116564;28;20430;-81
2022/01/16 04:12:04;;;;;;;64.80;35.10;;;-6.00;99.90;;;;;;5116559;28;20410;-78
2022/01/16 04:17:13;;;;;;;56.17;32.87;;;-7.20;99.90;;;;;;5116787;28;20714;-80
2022/01/16 04:19:38;;;;;;;67.80;38.47;;;-7.20;99.90;;;;;;5115462;28;20394;-82
2022/01/16 04:22:04;;;;;;;53.17;32.13;;;-7.40;99.90;;;;;;5115879;28;20710;-80
2022/01/16 04:24:30;;;;;;;56.80;32.83;;;-7.50;99.90;;;;;;5115773;28;20166;-80
2022/01/16 04:26:55;;;;;;;57.57;30.67;;;-7.30;99.90;;;;;;5116651;28;20597;-80
2022/01/16 04:29:21;;;;;;;52.90;32.70;;;-7.00;99.90;;;;;;5116572;28;20469;-80
2022/01/16 04:31:47;;;;;;;63.47;32.57;;;-7.80;99.90;;;;;;5114747;28;20256;-80
2022/01/16 04:34:13;;;;;;;54.03;32.57;;;-7.80;99.90;;;;;;5115487;28;20220;-80
2022/01/16 04:36:39;;;;;;;55.63;32.80;;;-7.90;99.90;;;;;;5116361;28;20170;-81
2022/01/16 04:39:13;;;;;;;57.13;32.27;;;-8.00;99.90;;;;;;5116275;28;20271;-80
2022/01/16 04:44:24;;;;;;;64.17;33.20;;;-8.10;99.90;;;;;;5116150;28;20421;-81
2022/01/16 04:46:50;;;;;;;55.50;33.73;;;-8.70;99.90;;;;;;5115315;28;20493;-81
2022/01/16 04:49:16;;;;;;;63.20;34.83;;;-7.90;99.90;;;;;;5116287;28;20437;-81
2022/01/16 04:51:42;;;;;;;58.93;34.33;;;-6.60;99.90;;;;;;5115410;28;20253;-81
2022/01/16 04:54:08;;;;;;;59.67;33.17;;;-8.00;99.90;;;;;;5116171;28;20169;-81
2022/01/16 04:56:34;;;;;;;59.27;33.43;;;-8.10;99.90;;;;;;5115278;28;20177;-81
2022/01/16 04:59:00;;;;;;;58.27;34.23;;;-6.60;99.90;;;;;;5116277;28;20426;-79
2022/01/16 05:01:26;;;;;;;60.63;34.33;;;-8.00;99.90;;;;;;5114089;28;20450;-81
2022/01/16 05:03:52;;;;;;;59.87;34.90;;;-7.80;99.90;;;;;;5116178;28;20489;-80
2022/01/16 05:06:18;;;;;;;59.13;33.00;;;-5.80;99.90;;;;;;5114990;28;20588;-81
2022/01/16 05:08:44;;;;;;;71.60;36.87;;;-8.00;99.90;;;;;;5115316;28;20415;-80
2022/01/16 05:11:11;;;;;;;61.30;35.50;;;-7.00;99.90;;;;;;5116123;28;20402;-81
2022/01/16 05:18:52;;;;;;;57.53;33.73;;;-7.70;99.90;;;;;;5116045;28;20538;-81
2022/01/16 05:21:18;;;;;;;69.30;37.47;;;-7.50;99.90;;;;;;5114718;28;20889;-82
2022/01/16 05:23:44;;;;;;;57.23;31.67;;;-7.30;99.90;;;;;;5116124;28;20405;-81
2022/01/16 05:26:11;;;;;;;57.13;30.63;;;-7.30;99.90;;;;;;5114094;28;20255;-81
2022/01/16 05:28:37;;;;;;;60.20;32.33;;;-7.20;99.90;;;;;;5116066;28;20177;-81
2022/01/16 05:31:04;;;;;;;61.47;32.57;;;-7.30;99.90;;;;;;5114858;28;20414;-81
2022/01/16 05:33:30;;;;;;;56.07;32.20;;;-7.30;99.90;;;;;;5117501;28;20177;-81
2022/01/16 05:35:56;;;;;;;65.87;33.30;;;-6.00;99.90;;;;;;5117683;28;20409;-77
2022/01/16 05:38:22;;;;;;;62.20;33.57;;;-5.00;99.90;;;;;;5119408;28;20553;-81
2022/01/16 05:40:47;;;;;;;65.57;33.93;;;-5.90;99.90;;;;;;5118490;28;20453;-80
2022/01/16 05:43:13;;;;;;;62.07;31.80;;;-6.50;99.90;;;;;;5119218;28;20750;-81
2022/01/16 05:45:39;;;;;;;70.33;35.33;;;-5.00;99.90;;;;;;5119626;28;20228;-81
2022/01/16 05:48:05;;;;;;;60.83;31.77;;;-6.90;99.90;;;;;;5119706;28;20257;-81
2022/01/16 05:50:32;;;;;;;69.60;37.00;;;-6.90;99.90;;;;;;5119205;28;20215;-81
2022/01/16 05:53:01;;;;;;;70.10;35.40;;;-6.50;99.90;;;;;;5118885;28;20211;-80
2022/01/16 05:55:33;;;;;;;58.00;33.20;;;-6.60;99.90;;;;;;5119604;28;20401;-83
2022/01/16 05:57:59;;;;;;;70.10;35.07;;;-6.50;99.90;;;;;;5118312;28;20402;-85
2022/01/16 06:00:25;;;;;;;69.07;37.10;;;-5.60;99.90;;;;;;5118583;28;20442;-84
2022/01/16 06:02:51;;;;;;;65.07;33.63;;;-7.10;99.90;;;;;;5119356;28;20756;-83
2022/01/16 06:05:17;;;;;;;63.87;34.00;;;-5.10;99.90;;;;;;5119133;28;20495;-84
2022/01/16 06:07:45;;;;;;;67.10;34.97;;;-7.10;99.90;;;;;;5117860;28;20215;-84
2022/01/16 06:10:12;;;;;;;61.93;33.17;;;-6.90;99.90;;;;;;5118693;28;20178;-82
2022/01/16 06:12:37;;;;;;;66.83;32.07;;;-6.80;99.90;;;;;;5119189;28;20409;-84
2022/01/16 06:15:05;;;;;;;61.83;30.27;;;-6.60;99.90;;;;;;5119185;28;20497;-83
2022/01/16 06:17:31;;;;;;;59.67;33.43;;;-6.30;99.90;;;;;;5117760;28;20270;-84
2022/01/16 06:19:57;;;;;;;53.37;29.53;;;-6.60;99.90;;;;;;5117148;28;20454;-84
2022/01/16 06:22:23;;;;;;;62.17;32.70;;;-6.00;99.90;;;;;;5118185;28;20398;-84
2022/01/16 06:24:49;;;;;;;60.53;32.37;;;-6.70;99.90;;;;;;5117981;28;20243;-83
2022/01/16 06:27:14;;;;;;;55.33;28.23;;;-6.30;99.90;;;;;;5118677;28;20199;-84
2022/01/16 06:29:40;;;;;;;59.33;32.43;;;-6.30;99.90;;;;;;5120373;28;20198;-84
2022/01/16 06:32:06;;;;;;;57.00;31.83;;;-6.10;99.90;;;;;;5118941;28;20170;-84
2022/01/16 06:34:32;;;;;;;67.40;35.37;;;-6.30;99.90;;;;;;5123246;28;20189;-84
2022/01/16 06:37:00;;;;;;;60.67;31.77;;;-6.40;99.90;;;;;;5125211;28;20176;-84
2022/01/16 06:39:29;;;;;;;60.73;32.87;;;-6.50;99.90;;;;;;5122286;28;20186;-84
2022/01/16 06:41:55;;;;;;;62.90;31.57;;;-6.00;99.90;;;;;;5117563;28;20452;-84
2022/01/16 06:44:21;;;;;;;63.53;31.60;;;-4.70;99.90;;;;;;5117153;28;20414;-84
2022/01/16 06:46:46;;;;;;;66.47;34.33;;;-6.40;99.90;;;;;;5117317;28;20394;-82
2022/01/16 06:49:12;;;;;;;61.93;31.03;;;-4.10;99.90;;;;;;5117457;28;20174;-84
2022/01/16 06:51:38;;;;;;;61.43;31.60;;;-7.00;99.90;;;;;;5118490;28;20170;-84
2022/01/16 06:54:04;;;;;;;62.27;35.27;;;-5.50;99.90;;;;;;5117816;28;20174;-82
2022/01/16 06:56:30;;;;;;;62.20;30.27;;;-6.50;99.90;;;;;;5118218;28;20386;-83
2022/01/16 06:58:58;;;;;;;67.43;33.87;;;-7.20;99.90;;;;;;5117250;28;20181;-83
2022/01/16 07:01:24;;;;;;;58.07;31.97;;;-7.10;99.90;;;;;;5118109;28;20197;-79
2022/01/16 07:03:50;;;;;;;58.27;31.33;;;-6.80;99.90;;;;;;5117389;28;20425;-82
2022/01/16 07:06:16;;;;;;;57.00;32.07;;;-6.70;99.90;;;;;;5118128;28;20431;-82
2022/01/16 07:08:42;;;;;;;59.47;32.00;;;-4.40;99.90;;;;;;5118179;28;20177;-81
2022/01/16 07:11:08;;;;;;;57.43;33.20;;;-6.70;99.90;;;;;;5118191;28;20174;-81
2022/01/16 07:13:34;;;;;;;61.93;30.20;;;-6.40;99.90;;;;;;5117350;28;20472;-82
2022/01/16 07:16:00;;;;;;;56.70;29.87;;;-4.30;99.90;;;;;;5117766;28;20398;-82
2022/01/16 07:18:27;;;;;;;62.63;34.10;;;-6.70;99.90;;;;;;5116911;28;20905;-82
2022/01/16 07:20:53;;;;;;;62.70;30.60;;;-7.00;99.90;;;;;;5117371;28;20189;-82
2022/01/16 07:23:20;;;;;;;52.83;30.57;;;-6.80;99.90;;;;;;5116265;28;20443;-82
2022/01/16 07:25:46;;;;;;;63.20;30.77;;;-6.70;99.90;;;;;;5117934;28;20721;-79
2022/01/16 07:28:11;;;;;;;55.00;32.07;;;-6.60;99.90;;;;;;5117761;28;20394;-81
2022/01/16 07:30:39;;;;;;;55.03;30.30;;;-6.40;99.90;;;;;;5116579;28;20484;-81
2022/01/16 07:33:05;;;;;;;55.57;31.07;;;-4.50;99.90;;;;;;5117418;28;20162;-81
2022/01/16 07:35:32;;;;;;;48.73;28.47;;;-5.00;99.90;;;;;;5116547;28;20491;-81
2022/01/16 07:37:58;;;;;;;57.90;29.73;;;-4.00;99.90;;;;;;5117360;28;20505;-81
2022/01/16 07:40:26;;;;;;;56.33;28.83;;;-6.70;99.90;;;;;;5116632;28;20443;-81
2022/01/16 07:42:52;;;;;;;47.73;27.60;;;-6.70;99.90;;;;;;5117538;28;20742;-82
2022/01/16 07:45:18;;;;;;;50.47;30.80;;;-6.50;99.90;;;;;;5112406;28;20441;-84
2022/01/16 07:47:44;;;;;;;51.63;28.23;;;-6.30;99.90;;;;;;5112419;28;20421;-84
2022/01/16 07:50:12;;;;;;;53.47;29.80;;;-5.30;99.90;;;;;;5115573;28;20458;-83
2022/01/16 07:52:37;;;;;;;50.87;29.53;;;-7.00;99.90;;;;;;5117151;27;20265;-82
2022/01/16 07:55:03;;;;;;;48.10;28.40;;;-6.80;99.90;;;;;;5115505;28;21242;-81
2022/01/16 07:57:29;;;;;;;58.70;31.17;;;-6.30;99.90;;;;;;5115039;28;20170;-82
2022/01/16 07:59:55;;;;;;;51.47;27.63;;;-6.40;99.90;;;;;;5116639;28;20442;-83
2022/01/16 08:02:21;;;;;;;49.53;26.67;;;-6.20;99.90;;;;;;5117184;28;20188;-81
2022/01/16 08:04:47;;;;;;;43.63;26.47;;;-3.30;99.90;;;;;;5116991;28;20207;-80
2022/01/16 08:07:12;;;;;;;53.60;29.70;;;-6.50;99.90;;;;;;5115330;28;20198;-81
2022/01/16 08:09:38;;;;;;;56.50;30.67;;;-6.50;99.90;;;;;;5116026;28;20185;-80
2022/01/16 08:12:05;;;;;;;53.97;29.17;;;-3.70;99.90;;;;;;5117073;28;20467;-79
2022/01/16 08:14:31;;;;;;;58.30;29.33;;;-6.80;99.90;;;;;;5116615;28;20170;-81
2022/01/16 08:16:57;;;;;;;48.73;30.20;;;-4.60;99.90;;;;;;5115161;28;20883;-76
2022/01/16 08:19:24;;;;;;;50.20;28.43;;;-6.40;99.90;;;;;;5115516;28;20193;-77
2022/01/16 08:21:50;;;;;;;50.20;27.43;;;-6.30;99.90;;;;;;5115179;28;20805;-78
2022/01/16 08:24:16;;;;;;;46.93;26.03;;;-6.50;99.90;;;;;;5115856;28;20390;-76
2022/01/16 08:26:43;;;;;;;49.43;27.30;;;-6.80;99.90;;;;;;5116601;28;20394;-75
2022/01/16 08:29:09;;;;;;;53.13;27.93;;;-6.70;99.90;;;;;;5116369;28;20390;-76
2022/01/16 08:31:35;;;;;;;51.57;30.47;;;-6.40;99.90;;;;;;5116502;28;20886;-74
2022/01/16 08:34:00;;;;;;;47.93;27.57;;;-6.70;99.90;;;;;;5115669;28;20166;-75
2022/01/16 08:36:26;;;;;;;48.30;27.60;;;-6.00;99.90;;;;;;5109212;28;20629;-79
2022/01/16 08:38:54;;;;;;;43.93;26.30;;;-7.30;99.90;;;;;;5095917;28;20178;-74
2022/01/16 08:41:21;;;;;;;52.50;28.47;;;-7.90;99.90;;;;;;5095675;28;20458;-75
2022/01/16 08:43:47;;;;;;;50.93;28.33;;;-8.00;99.90;;;;;;5096494;28;20422;-74
2022/01/16 08:46:14;;;;;;;52.43;28.77;;;-7.70;99.90;;;;;;5095600;28;20401;-75
2022/01/16 08:48:40;;;;;;;53.73;31.33;;;-7.90;99.90;;;;;;5100031;28;20402;-73
2022/01/16 08:51:06;;;;;;;51.40;27.20;;;-6.90;99.90;;;;;;5104452;28;20621;-77
2022/01/16 08:53:32;;;;;;;54.13;29.37;;;-6.80;99.90;;;;;;5110095;28;20836;-77
2022/01/16 08:55:59;;;;;;;49.33;27.90;;;-7.80;99.90;;;;;;5105139;28;20197;-82
2022/01/16 08:58:25;;;;;;;48.53;28.13;;;-7.80;99.90;;;;;;5105523;28;20398;-75
2022/01/16 09:00:51;;;;;;;47.80;26.17;;;-7.00;99.90;;;;;;5101889;28;20496;-76
2022/01/16 09:03:20;;;;;;;52.13;25.67;;;-4.80;99.90;;;;;;5095788;28;20387;-76
2022/01/16 09:05:46;;;;;;;51.40;27.07;;;-7.00;99.90;;;;;;5095091;28;20399;-76
2022/01/16 09:08:13;;;;;;;53.67;26.97;;;-6.10;99.90;;;;;;5096586;28;20498;-76
2022/01/16 09:10:41;;;;;;;57.67;30.03;;;-6.60;99.90;;;;;;5098334;28;20709;-77
2022/01/16 09:13:11;;;;;;;48.53;29.27;;;-6.50;99.90;;;;;;5099428;28;20407;-75
2022/01/16 09:15:39;;;;;;;51.23;27.67;;;-5.80;99.90;;;;;;5099333;28;20399;-78
2022/01/16 09:18:05;;;;;;;52.57;27.53;;;-6.80;99.90;;;;;;5099402;28;20405;-78
2022/01/16 09:20:32;;;;;;;58.97;30.10;;;-6.90;99.90;;;;;;5105454;28;20453;-77
2022/01/16 09:22:59;;;;;;;48.93;28.13;;;-7.10;99.90;;;;;;5107254;28;20898;-76
2022/01/16 09:25:24;;;;;;;55.03;29.23;;;-7.10;99.90;;;;;;5107049;28;20398;-73
2022/01/16 09:27:51;;;;;;;48.80;28.77;;;-5.50;99.90;;;;;;5108082;28;20681;-74
2022/01/16 09:30:18;;;;;;;48.33;29.43;;;-7.30;99.90;;;;;;5107039;28;20177;-73
2022/01/16 09:32:43;;;;;;;50.93;27.77;;;-7.80;99.90;;;;;;5112116;28;20442;-73
2022/01/16 09:35:10;;;;;;;55.63;30.13;;;-6.00;99.90;;;;;;5101991;28;20437;-74
2022/01/16 09:37:37;;;;;;;48.87;27.93;;;-7.20;99.90;;;;;;5114829;28;20178;-75
2022/01/16 09:40:06;;;;;;;50.27;28.67;;;-5.80;99.90;;;;;;5098195;28;20482;-75
2022/01/16 09:42:32;;;;;;;45.57;27.10;;;-7.30;99.90;;;;;;5097889;28;20399;-73
2022/01/16 09:44:58;;;;;;;47.83;25.53;;;-6.70;99.90;;;;;;5099739;28;20413;-74
2022/01/16 09:47:24;;;;;;;50.77;27.03;;;-6.60;99.90;;;;;;5104951;28;20402;-74
2022/01/16 09:49:50;;;;;;;38.97;25.20;;;-6.80;99.90;;;;;;5108453;28;20180;-73
2022/01/16 09:52:17;;;;;;;45.33;26.33;;;-7.40;99.90;;;;;;5116952;28;20189;-74
2022/01/16 09:54:43;;;;;;;47.50;26.33;;;-7.60;99.90;;;;;;5117590;28;20704;-74
2022/01/16 09:57:11;;;;;;;45.57;27.13;;;-7.60;99.90;;;;;;5119025;28;20441;-74
2022/01/16 09:59:37;;;;;;;45.07;25.30;;;-7.90;99.90;;;;;;5119305;28;20540;-74
2022/01/16 10:02:04;;;;;;;41.93;22.33;;;-7.50;99.90;;;;;;5119231;28;20481;-75
2022/01/16 10:04:36;;;;;;;43.63;24.63;;;-7.40;99.90;;;;;;5119271;28;20561;-74
2022/01/16 10:07:05;;;;;;;42.60;25.10;;;-7.40;99.90;;;;;;5119094;28;20399;-75
2022/01/16 10:09:31;;;;;;;44.27;24.07;;;-7.40;99.90;;;;;;5118869;28;20425;-75
2022/01/16 10:11:59;;;;;;;43.97;24.33;;;-7.40;99.90;;;;;;5118722;28;20402;-75
2022/01/16 10:14:36;;;;;;;43.50;25.00;;;-5.80;99.90;;;;;;5118560;28;20399;-74
2022/01/16 10:17:22;;;;;;;47.43;25.23;;;-7.40;99.90;;;;;;5118403;28;20409;-73
2022/01/16 10:20:05;;;;;;;37.10;23.77;;;-7.30;99.90;;;;;;5117589;28;20406;-77
2022/01/16 10:22:54;;;;;;;44.33;23.37;;;-7.70;99.90;;;;;;5118550;28;20408;-73
2022/01/16 10:25:41;;;;;;;38.13;22.80;;;-7.20;99.90;;;;;;5117430;28;20409;-75
2022/01/16 10:28:17;;;;;;;44.10;24.43;;;-7.90;99.90;;;;;;5118642;28;20678;-75
2022/01/16 10:30:46;;;;;;;50.20;25.27;;;-5.70;99.90;;;;;;5112287;28;20411;-74
2022/01/16 10:33:15;;;;;;;40.13;24.33;;;-7.30;99.90;;;;;;5117758;28;20461;-75
2022/01/16 10:35:43;;;;;;;39.03;23.03;;;-5.90;99.90;;;;;;5118924;28;20888;-75
2022/01/16 10:38:16;;;;;;;37.20;24.07;;;-6.80;99.90;;;;;;5118533;28;20885;-77
2022/01/16 10:40:44;;;;;;;38.17;21.53;;;-6.60;99.90;;;;;;5116274;28;20807;-75
2022/01/16 10:43:13;;;;;;;35.70;24.03;;;-6.40;99.90;;;;;;5118694;28;20402;-74
2022/01/16 10:45:43;;;;;;;34.90;22.70;;;-7.00;99.90;;;;;;5117466;28;20518;-74
2022/01/16 10:48:11;;;;;;;35.63;22.07;;;-7.00;99.90;;;;;;5118461;28;20475;-74
2022/01/16 10:50:43;;;;;;;39.87;23.03;;;-7.30;99.90;;;;;;5116563;28;20808;-74
2022/01/16 10:53:15;;;;;;;37.23;23.30;;;-7.10;99.90;;;;;;5113789;28;20415;-73
2022/01/16 10:55:53;;;;;;;34.13;22.37;;;-6.90;99.90;;;;;;5106927;28;20484;-74
2022/01/16 10:58:30;;;;;;;35.00;21.40;;;-6.80;99.90;;;;;;5108643;28;20415;-73
2022/01/16 11:01:03;;;;;;;38.67;21.40;;;-7.10;99.90;;;;;;5130395;27;20449;-71
2022/01/16 11:03:45;;;;;;;35.83;20.40;;;-7.00;99.90;;;;;;5106702;28;20410;-70
2022/01/16 11:06:12;;;;;;;35.53;22.47;;;-6.50;99.90;;;;;;5108423;28;20417;-71
2022/01/16 11:08:38;;;;;;;32.53;19.60;;;-6.10;99.90;;;;;;5116697;28;20721;-70
2022/01/16 11:11:06;;;;;;;26.53;17.90;;;-6.80;99.90;;;;;;5117466;28;20406;-70
2022/01/16 11:13:34;;;;;;;32.37;19.07;;;-7.10;99.90;;;;;;5116918;28;20162;-71
2022/01/16 11:16:03;;;;;;;31.90;19.90;;;-7.20;99.90;;;;;;5117260;28;20406;-71
2022/01/16 11:18:30;;;;;;;29.63;19.67;;;-7.20;99.90;;;;;;5117454;28;20410;-70
2022/01/16 11:21:08;;;;;;;30.93;18.93;;;-6.80;99.90;;;;;;5117923;28;20445;-71
2022/01/16 11:26:10;;;;;;;34.17;20.33;;;-6.60;99.90;;;;;;5113514;27;20415;-71
2022/01/16 11:28:37;;;;;;;32.83;18.10;;;-7.30;99.90;;;;;;5104492;28;20419;-72
2022/01/16 11:31:07;;;;;;;32.90;20.63;;;-6.70;99.90;;;;;;5104334;28;20411;-72
2022/01/16 11:33:34;;;;;;;31.53;20.43;;;-7.00;99.90;;;;;;5096890;28;20400;-72
2022/01/16 11:36:29;;;;;;;31.57;19.50;;;-6.80;99.90;;;;;;5096904;28;20407;-72
2022/01/16 11:39:05;;;;;;;36.37;22.40;;;-6.60;99.90;;;;;;5086864;28;20449;-71
2022/01/16 11:41:39;;;;;;;34.13;21.57;;;-6.80;99.90;;;;;;5106027;28;20453;-70
2022/01/16 11:44:07;;;;;;;37.77;20.13;;;-6.80;99.90;;;;;;5114014;28;20891;-75
2022/01/16 11:46:40;;;;;;;38.33;21.33;;;-6.60;99.90;;;;;;5116800;28;20398;-74
2022/01/16 11:49:07;;;;;;;41.70;22.40;;;-6.70;99.90;;;;;;5117104;28;20426;-74
2022/01/16 11:51:33;;;;;;;35.47;21.80;;;-6.20;99.90;;;;;;5112691;28;20457;-76
2022/01/16 11:53:59;;;;;;;35.30;22.40;;;-4.50;99.90;;;;;;5100028;28;20792;-74
2022/01/16 11:56:42;;;;;;;39.97;22.27;;;-6.10;99.90;;;;;;5104098;28;20190;-75
2022/01/16 11:59:11;;;;;;;33.57;21.57;;;-6.30;99.90;;;;;;5103733;28;20256;-74
2022/01/16 12:02:09;;;;;;;38.90;20.33;;;-6.40;99.90;;;;;;5106212;28;20449;-73
2022/01/16 12:04:36;;;;;;;43.53;24.27;;;-6.40;99.90;;;;;;5112214;28;20424;-70
2022/01/16 12:07:15;;;;;;;35.67;18.93;;;-5.90;99.90;;;;;;5103057;28;20849;-71
2022/01/16 12:09:48;;;;;;;38.40;21.30;;;-7.20;99.90;;;;;;5116019;28;20416;-70
2022/01/16 12:12:16;;;;;;;40.20;22.27;;;-7.10;99.90;;;;;;5115945;28;20420;-72
2022/01/16 12:14:59;;;;;;;36.60;23.10;;;-7.50;99.90;;;;;;5115193;28;20497;-72
2022/01/16 12:17:32;;;;;;;37.20;24.37;;;-6.70;99.90;;;;;;5115133;28;20409;-72
2022/01/16 12:20:20;;;;;;;41.70;21.60;;;-6.80;99.90;;;;;;5116479;28;20410;-72
2022/01/16 12:23:05;;;;;;;35.17;21.57;;;-7.10;99.90;;;;;;5116289;28;20418;-70
2022/01/16 12:25:30;;;;;;;32.47;19.70;;;-7.10;99.90;;;;;;5115691;28;20403;-72
2022/01/16 12:27:56;;;;;;;41.70;22.10;;;-5.10;99.90;;;;;;5116569;28;20472;-72
2022/01/16 12:30:32;;;;;;;38.80;22.43;;;-6.60;99.90;;;;;;5115899;28;20170;-72
2022/01/16 12:33:16;;;;;;;32.13;21.40;;;-7.10;99.90;;;;;;5114773;28;20585;-75
2022/01/16 12:35:42;;;;;;;33.47;20.37;;;-7.00;99.90;;;;;;5114875;28;20429;-74
2022/01/16 12:38:19;;;;;;;35.50;22.77;;;-6.90;99.90;;;;;;5113988;28;20477;-74
2022/01/16 12:41:03;;;;;;;32.33;20.50;;;-6.90;99.90;;;;;;5115238;28;20225;-73
2022/01/16 12:45:57;;;;;;;31.97;20.20;;;-6.50;99.90;;;;;;5106090;28;20409;-74
2022/01/16 12:48:23;;;;;;;30.57;19.20;;;-6.40;99.90;;;;;;5103892;28;20395;-74
2022/01/16 12:50:51;;;;;;;41.77;22.60;;;-6.80;99.90;;;;;;5109185;28;20712;-75
2022/01/16 12:53:41;;;;;;;36.07;21.43;;;-6.40;99.90;;;;;;5115226;28;20169;-78
2022/01/16 12:56:19;;;;;;;37.27;23.87;;;-6.50;99.90;;;;;;5114660;28;20442;-72
2022/01/16 12:58:46;;;;;;;35.80;20.40;;;-6.40;99.90;;;;;;5114337;28;20398;-79
2022/01/16 13:01:12;;;;;;;46.27;23.67;;;-5.70;99.90;;;;;;5111152;28;20458;-76
2022/01/16 13:03:42;;;;;;;36.23;19.20;;;-4.80;99.90;;;;;;5103586;28;20430;-76
2022/01/16 13:06:24;;;;;;;41.60;21.83;;;-6.40;99.90;;;;;;5101963;28;20174;-75
2022/01/16 13:08:50;;;;;;;34.60;21.50;;;-6.80;99.90;;;;;;5095754;28;20419;-74
2022/01/16 13:11:16;;;;;;;34.73;20.50;;;-5.80;99.90;;;;;;5106240;28;20480;-74
2022/01/16 13:13:42;;;;;;;37.57;21.83;;;-6.90;99.90;;;;;;5097974;28;20411;-73
2022/01/16 13:16:27;;;;;;;41.93;20.60;;;-7.10;99.90;;;;;;5110777;28;20496;-73
2022/01/16 13:19:13;;;;;;;33.50;20.37;;;-5.90;99.90;;;;;;5095641;28;20185;-73
2022/01/16 13:22:04;;;;;;;43.30;23.23;;;-6.40;99.90;;;;;;5108689;28;20453;-74
2022/01/16 13:24:51;;;;;;;44.23;22.67;;;-6.20;99.90;;;;;;5094255;28;20540;-73
2022/01/16 13:27:25;;;;;;;33.40;20.57;;;-6.50;99.90;;;;;;5097706;28;20795;-74
2022/01/16 13:29:51;;;;;;;39.60;22.30;;;-6.40;99.90;;;;;;5093828;28;20426;-73
2022/01/16 13:32:19;;;;;;;36.73;20.23;;;-6.40;99.90;;;;;;5110396;28;20806;-73